Terminal Aerodrome Forecast
Issued by NWS Omaha/Valley, NE

Home | Current Version | Previous Version | Text Only | Print | Product List | Glossary On
Versions: 1 2 3 4 5 6 7 8 9 10 11 12 13 14 15 16 17 18 19 20 21 22 23 24 25 26 27 28 29 30
000
FTUS43 KOAX 010232 AAA
TAFOMA
TAF AMD
KOMA 010232Z 0103/0124 VRB03KT P6SM SCT100 OVC150
      TEMPO 0103/0105 4SM -TSRA BKN050CB
     FM010500 12005KT 5SM -SHRA BR OVC070
     FM011200 10008KT 5SM BR OVC120 PROB30 0112/0116 5SM -TSRA
      BKN050CB
     FM011800 09010KT P6SM BKN060=

USA.gov is the U.S. government's official web portal to all federal, state and local government web resources and services.